sensor_id;sensor_type;location;lat;lon;timestamp;pressure;altitude;pressure_sealevel;temperature;humidity
60258;BME280;46115;44.484;11.314;2023-04-28T00:03:39;100607.22;;;12.81;70.44
60258;BME280;46115;44.484;11.314;2023-04-28T00:07:42;100615.19;;;12.65;70.18
60258;BME280;46115;44.484;11.314;2023-04-28T00:11:44;100620.66;;;12.78;69.84
60258;BME280;46115;44.484;11.314;2023-04-28T00:15:48;100622.22;;;12.66;70.42
60258;BME280;46115;44.484;11.314;2023-04-28T00:19:52;100610.22;;;12.75;70.58
60258;BME280;46115;44.484;11.314;2023-04-28T00:23:55;100613.16;;;12.70;71.13
60258;BME280;46115;44.484;11.314;2023-04-28T00:27:57;100608.53;;;12.74;71.06
60258;BME280;46115;44.484;11.314;2023-04-28T00:32:01;100609.66;;;12.86;70.36
60258;BME280;46115;44.484;11.314;2023-04-28T00:36:04;100600.69;;;12.24;72.90
60258;BME280;46115;44.484;11.314;2023-04-28T00:40:07;100595.22;;;12.27;71.44
60258;BME280;46115;44.484;11.314;2023-04-28T00:44:09;100592.91;;;12.21;71.53
60258;BME280;46115;44.484;11.314;2023-04-28T00:48:13;100589.75;;;12.45;71.59
60258;BME280;46115;44.484;11.314;2023-04-28T00:52:15;100580.72;;;12.49;70.74
60258;BME280;46115;44.484;11.314;2023-04-28T00:56:17;100583.69;;;12.43;70.84
60258;BME280;46115;44.484;11.314;2023-04-28T01:00:20;100587.69;;;12.19;71.45
60258;BME280;46115;44.484;11.314;2023-04-28T01:04:26;100569.50;;;12.29;71.04
60258;BME280;46115;44.484;11.314;2023-04-28T01:08:31;100571.66;;;12.05;72.47
60258;BME280;46115;44.484;11.314;2023-04-28T01:12:35;100569.75;;;11.91;72.26
60258;BME280;46115;44.484;11.314;2023-04-28T01:16:38;100550.56;;;11.69;72.87
60258;BME280;46115;44.484;11.314;2023-04-28T01:20:42;100557.44;;;11.73;72.26
60258;BME280;46115;44.484;11.314;2023-04-28T01:24:46;100563.59;;;11.56;72.81
60258;BME280;46115;44.484;11.314;2023-04-28T01:28:49;100564.31;;;11.60;72.41
60258;BME280;46115;44.484;11.314;2023-04-28T01:32:51;100574.25;;;11.72;72.61
60258;BME280;46115;44.484;11.314;2023-04-28T01:36:54;100570.69;;;11.55;72.35
60258;BME280;46115;44.484;11.314;2023-04-28T01:40:58;100541.47;;;11.40;72.55
60258;BME280;46115;44.484;11.314;2023-04-28T01:45:00;100575.06;;;11.56;72.56
60258;BME280;46115;44.484;11.314;2023-04-28T01:49:03;100566.56;;;11.50;72.76
60258;BME280;46115;44.484;11.314;2023-04-28T01:53:05;100575.50;;;11.30;72.97
60258;BME280;46115;44.484;11.314;2023-04-28T01:57:09;100572.88;;;11.30;72.63
60258;BME280;46115;44.484;11.314;2023-04-28T02:01:12;100577.38;;;11.28;73.20
60258;BME280;46115;44.484;11.314;2023-04-28T02:05:15;100577.94;;;11.17;73.13
60258;BME280;46115;44.484;11.314;2023-04-28T02:09:17;100587.03;;;11.12;72.63
60258;BME280;46115;44.484;11.314;2023-04-28T02:13:21;100588.09;;;11.08;72.83
60258;BME280;46115;44.484;11.314;2023-04-28T02:17:23;100593.28;;;11.09;72.36
60258;BME280;46115;44.484;11.314;2023-04-28T02:21:25;100598.53;;;11.11;72.43
60258;BME280;46115;44.484;11.314;2023-04-28T02:25:28;100601.28;;;11.27;71.12
60258;BME280;46115;44.484;11.314;2023-04-28T02:29:31;100608.38;;;11.07;70.92
60258;BME280;46115;44.484;11.314;2023-04-28T02:33:34;100605.38;;;11.15;70.04
60258;BME280;46115;44.484;11.314;2023-04-28T02:37:36;100617.63;;;10.99;71.37
60258;BME280;46115;44.484;11.314;2023-04-28T02:41:38;100616.97;;;11.12;70.76
60258;BME280;46115;44.484;11.314;2023-04-28T02:45:42;100628.13;;;11.00;70.96
60258;BME280;46115;44.484;11.314;2023-04-28T02:49:44;100617.06;;;11.11;69.67
60258;BME280;46115;44.484;11.314;2023-04-28T02:53:46;100617.22;;;11.25;70.17
60258;BME280;46115;44.484;11.314;2023-04-28T02:57:49;100606.78;;;11.22;69.60
60258;BME280;46115;44.484;11.314;2023-04-28T03:01:53;100593.81;;;11.17;69.52
60258;BME280;46115;44.484;11.314;2023-04-28T03:05:55;100602.66;;;11.16;68.98
60258;BME280;46115;44.484;11.314;2023-04-28T03:09:58;100601.31;;;11.08;69.24
60258;BME280;46115;44.484;11.314;2023-04-28T03:14:00;100592.13;;;10.98;69.76
60258;BME280;46115;44.484;11.314;2023-04-28T03:18:04;100600.69;;;11.03;68.75
60258;BME280;46115;44.484;11.314;2023-04-28T03:22:06;100601.09;;;10.76;69.47
60258;BME280;46115;44.484;11.314;2023-04-28T03:26:09;100604.81;;;11.08;68.69
60258;BME280;46115;44.484;11.314;2023-04-28T03:30:11;100595.59;;;10.81;69.10
60258;BME280;46115;44.484;11.314;2023-04-28T03:34:16;100608.88;;;10.79;69.02
60258;BME280;46115;44.484;11.314;2023-04-28T03:38:18;100612.50;;;10.96;67.77
60258;BME280;46115;44.484;11.314;2023-04-28T03:42:21;100580.53;;;11.00;66.86
60258;BME280;46115;44.484;11.314;2023-04-28T03:46:39;100612.75;;;11.79;66.83
60258;BME280;46115;44.484;11.314;2023-04-28T03:50:43;100574.66;;;10.76;67.32
60258;BME280;46115;44.484;11.314;2023-04-28T03:54:45;100586.00;;;10.59;68.23
60258;BME280;46115;44.484;11.314;2023-04-28T03:58:48;100624.44;;;10.85;68.22
60258;BME280;46115;44.484;11.314;2023-04-28T04:02:51;100618.75;;;10.57;69.33
60258;BME280;46115;44.484;11.314;2023-04-28T04:06:54;100615.38;;;10.72;68.38
60258;BME280;46115;44.484;11.314;2023-04-28T04:10:57;100608.50;;;10.68;68.36
60258;BME280;46115;44.484;11.314;2023-04-28T04:15:00;100624.63;;;11.00;66.91
60258;BME280;46115;44.484;11.314;2023-04-28T04:19:03;100619.56;;;11.14;67.27
60258;BME280;46115;44.484;11.314;2023-04-28T04:23:16;100611.72;;;10.75;67.44
60258;BME280;46115;44.484;11.314;2023-04-28T04:27:18;100621.03;;;10.46;68.91
60258;BME280;46115;44.484;11.314;2023-04-28T04:31:21;100619.38;;;10.43;68.73
60258;BME280;46115;44.484;11.314;2023-04-28T04:35:23;100621.25;;;10.79;68.22
60258;BME280;46115;44.484;11.314;2023-04-28T04:39:27;100622.75;;;10.84;67.42
60258;BME280;46115;44.484;11.314;2023-04-28T04:43:29;100616.00;;;10.40;69.33
60258;BME280;46115;44.484;11.314;2023-04-28T04:47:32;100610.22;;;10.69;68.15
60258;BME280;46115;44.484;11.314;2023-04-28T04:51:35;100613.72;;;10.70;68.38
60258;BME280;46115;44.484;11.314;2023-04-28T04:55:39;100630.25;;;10.56;68.76
60258;BME280;46115;44.484;11.314;2023-04-28T04:59:43;100635.47;;;10.76;68.25
60258;BME280;46115;44.484;11.314;2023-04-28T05:03:50;100646.66;;;11.00;67.37
60258;BME280;46115;44.484;11.314;2023-04-28T05:07:53;100646.34;;;11.06;67.17
60258;BME280;46115;44.484;11.314;2023-04-28T05:11:58;100645.84;;;11.17;66.06
60258;BME280;46115;44.484;11.314;2023-04-28T05:16:00;100629.63;;;11.42;65.19
60258;BME280;46115;44.484;11.314;2023-04-28T05:20:23;100642.75;;;11.79;64.74
60258;BME280;46115;44.484;11.314;2023-04-28T05:24:25;100634.28;;;12.72;62.32
60258;BME280;46115;44.484;11.314;2023-04-28T05:28:29;100640.78;;;12.17;62.15
60258;BME280;46115;44.484;11.314;2023-04-28T05:32:33;100649.94;;;12.61;61.60
60258;BME280;46115;44.484;11.314;2023-04-28T05:36:36;100632.91;;;12.65;60.14
60258;BME280;46115;44.484;11.314;2023-04-28T05:40:41;100659.63;;;12.93;59.65
60258;BME280;46115;44.484;11.314;2023-04-28T05:44:47;100663.38;;;13.05;59.24
60258;BME280;46115;44.484;11.314;2023-04-28T05:48:50;100668.66;;;13.68;58.49
60258;BME280;46115;44.484;11.314;2023-04-28T05:52:53;100655.84;;;12.97;59.78
60258;BME280;46115;44.484;11.314;2023-04-28T05:56:55;100671.38;;;13.36;58.15
60258;BME280;46115;44.484;11.314;2023-04-28T06:01:00;100644.44;;;13.58;57.96
60258;BME280;46115;44.484;11.314;2023-04-28T06:05:03;100668.72;;;13.96;56.52
60258;BME280;46115;44.484;11.314;2023-04-28T06:09:06;100667.31;;;13.91;56.99
60258;BME280;46115;44.484;11.314;2023-04-28T06:13:09;100660.69;;;13.68;56.79
60258;BME280;46115;44.484;11.314;2023-04-28T06:17:13;100665.69;;;15.16;54.12
60258;BME280;46115;44.484;11.314;2023-04-28T06:21:15;100669.75;;;15.22;53.38
60258;BME280;46115;44.484;11.314;2023-04-28T06:25:18;100670.13;;;15.30;53.71
60258;BME280;46115;44.484;11.314;2023-04-28T06:29:39;100662.25;;;16.46;52.76
60258;BME280;46115;44.484;11.314;2023-04-28T06:33:43;100624.19;;;16.31;49.99
60258;BME280;46115;44.484;11.314;2023-04-28T06:37:47;100651.31;;;15.46;52.41
60258;BME280;46115;44.484;11.314;2023-04-28T06:41:49;100650.13;;;16.91;49.60
60258;BME280;46115;44.484;11.314;2023-04-28T06:45:53;100640.59;;;17.00;49.30
60258;BME280;46115;44.484;11.314;2023-04-28T06:50:00;100646.28;;;16.95;48.94
60258;BME280;46115;44.484;11.314;2023-04-28T06:54:06;100650.03;;;17.64;47.62
60258;BME280;46115;44.484;11.314;2023-04-28T06:58:08;100648.69;;;18.85;46.23
60258;BME280;46115;44.484;11.314;2023-04-28T07:02:11;100659.47;;;19.06;45.75
60258;BME280;46115;44.484;11.314;2023-04-28T07:06:15;100656.47;;;19.85;45.22
60258;BME280;46115;44.484;11.314;2023-04-28T07:10:18;100665.19;;;19.23;46.61
60258;BME280;46115;44.484;11.314;2023-04-28T07:14:21;100662.06;;;20.75;43.17
60258;BME280;46115;44.484;11.314;2023-04-28T07:18:23;100657.72;;;20.84;43.78
60258;BME280;46115;44.484;11.314;2023-04-28T07:22:27;100657.13;;;20.80;44.74
60258;BME280;46115;44.484;11.314;2023-04-28T07:26:32;100639.97;;;21.12;43.67
60258;BME280;46115;44.484;11.314;2023-04-28T07:30:35;100665.38;;;21.38;42.99
60258;BME280;46115;44.484;11.314;2023-04-28T07:34:37;100668.34;;;22.13;43.75
60258;BME280;46115;44.484;11.314;2023-04-28T07:38:41;100658.88;;;21.70;46.42
60258;BME280;46115;44.484;11.314;2023-04-28T07:42:44;100657.59;;;21.35;46.06
60258;BME280;46115;44.484;11.314;2023-04-28T07:46:47;100662.81;;;22.24;45.24
60258;BME280;46115;44.484;11.314;2023-04-28T07:50:49;100619.19;;;22.10;45.57
60258;BME280;46115;44.484;11.314;2023-04-28T07:54:53;100652.94;;;21.86;45.49
60258;BME280;46115;44.484;11.314;2023-04-28T07:58:56;100662.13;;;21.93;46.39
60258;BME280;46115;44.484;11.314;2023-04-28T08:02:58;100656.31;;;22.54;46.13
60258;BME280;46115;44.484;11.314;2023-04-28T08:07:01;100648.53;;;21.94;46.89
60258;BME280;46115;44.484;11.314;2023-04-28T08:11:05;100661.84;;;22.05;46.13
60258;BME280;46115;44.484;11.314;2023-04-28T08:15:08;100669.25;;;23.15;44.08
60258;BME280;46115;44.484;11.314;2023-04-28T08:19:11;100680.50;;;23.55;43.71
60258;BME280;46115;44.484;11.314;2023-04-28T08:23:13;100679.16;;;24.56;40.67
60258;BME280;46115;44.484;11.314;2023-04-28T08:27:17;100686.72;;;24.53;40.48
60258;BME280;46115;44.484;11.314;2023-04-28T08:31:20;100645.34;;;23.83;41.26
60258;BME280;46115;44.484;11.314;2023-04-28T08:35:22;100673.69;;;24.48;40.97
60258;BME280;46115;44.484;11.314;2023-04-28T08:39:25;100669.63;;;25.12;39.48
60258;BME280;46115;44.484;11.314;2023-04-28T08:43:31;100671.25;;;25.47;37.61
60258;BME280;46115;44.484;11.314;2023-04-28T08:47:35;100656.13;;;25.12;39.14
60258;BME280;46115;44.484;11.314;2023-04-28T08:51:44;100664.88;;;25.73;37.58
60258;BME280;46115;44.484;11.314;2023-04-28T08:55:48;100667.59;;;26.38;36.51
60258;BME280;46115;44.484;11.314;2023-04-28T08:59:53;100661.13;;;26.23;36.03
60258;BME280;46115;44.484;11.314;2023-04-28T09:03:55;100650.50;;;25.80;37.01
60258;BME280;46115;44.484;11.314;2023-04-28T09:08:00;100654.03;;;25.97;35.41
60258;BME280;46115;44.484;11.314;2023-04-28T09:12:04;100646.94;;;26.84;34.99
60258;BME280;46115;44.484;11.314;2023-04-28T09:16:08;100652.75;;;26.65;35.75
60258;BME280;46115;44.484;11.314;2023-04-28T09:20:18;100653.03;;;26.06;36.03
60258;BME280;46115;44.484;11.314;2023-04-28T09:24:25;100650.13;;;26.16;36.37
60258;BME280;46115;44.484;11.314;2023-04-28T09:28:28;100655.91;;;26.37;35.45
60258;BME280;46115;44.484;11.314;2023-04-28T09:32:32;100658.50;;;25.32;36.10
60258;BME280;46115;44.484;11.314;2023-04-28T09:36:35;100648.81;;;25.71;36.48
60258;BME280;46115;44.484;11.314;2023-04-28T09:40:53;100646.09;;;25.79;36.52
60258;BME280;46115;44.484;11.314;2023-04-28T09:44:56;100655.41;;;25.77;37.91
60258;BME280;46115;44.484;11.314;2023-04-28T09:49:01;100644.09;;;24.99;36.99
60258;BME280;46115;44.484;11.314;2023-04-28T09:53:04;100646.31;;;25.19;36.53
60258;BME280;46115;44.484;11.314;2023-04-28T09:57:06;100633.34;;;25.39;37.51
60258;BME280;46115;44.484;11.314;2023-04-28T10:01:09;100638.34;;;25.10;39.42
60258;BME280;46115;44.484;11.314;2023-04-28T10:05:15;100624.69;;;24.77;38.62
60258;BME280;46115;44.484;11.314;2023-04-28T10:09:18;100612.16;;;24.34;39.49
60258;BME280;46115;44.484;11.314;2023-04-28T10:13:26;100610.47;;;24.33;41.00
60258;BME280;46115;44.484;11.314;2023-04-28T10:17:29;100619.34;;;24.51;40.28
60258;BME280;46115;44.484;11.314;2023-04-28T10:21:37;100605.50;;;24.54;39.98
60258;BME280;46115;44.484;11.314;2023-04-28T10:25:47;100600.78;;;23.08;42.86
60258;BME280;46115;44.484;11.314;2023-04-28T10:29:50;100605.00;;;23.99;41.27
60258;BME280;46115;44.484;11.314;2023-04-28T10:33:53;100593.72;;;23.60;41.75
60258;BME280;46115;44.484;11.314;2023-04-28T10:38:03;100586.44;;;23.78;42.30
60258;BME280;46115;44.484;11.314;2023-04-28T10:47:00;100575.81;;;23.77;43.08
60258;BME280;46115;44.484;11.314;2023-04-28T10:51:27;100576.13;;;22.75;45.11
60258;BME280;46115;44.484;11.314;2023-04-28T10:55:32;100573.44;;;23.38;43.04
60258;BME280;46115;44.484;11.314;2023-04-28T10:59:36;100565.94;;;22.41;43.81
60258;BME280;46115;44.484;11.314;2023-04-28T11:03:47;100567.72;;;23.06;46.08
60258;BME280;46115;44.484;11.314;2023-04-28T11:12:32;100557.47;;;22.91;44.29
60258;BME280;46115;44.484;11.314;2023-04-28T11:16:47;100517.50;;;22.59;44.47
60258;BME280;46115;44.484;11.314;2023-04-28T11:20:54;100555.78;;;23.44;44.56
60258;BME280;46115;44.484;11.314;2023-04-28T11:24:59;100545.75;;;23.18;44.55
60258;BME280;46115;44.484;11.314;2023-04-28T11:29:04;100543.63;;;23.04;46.05
60258;BME280;46115;44.484;11.314;2023-04-28T11:33:07;100535.75;;;23.11;46.78
60258;BME280;46115;44.484;11.314;2023-04-28T11:37:14;100535.34;;;23.59;44.92
60258;BME280;46115;44.484;11.314;2023-04-28T11:41:17;100545.66;;;23.46;45.38
60258;BME280;46115;44.484;11.314;2023-04-28T11:45:21;100540.03;;;23.75;45.36
60258;BME280;46115;44.484;11.314;2023-04-28T11:49:23;100526.97;;;23.62;45.89
60258;BME280;46115;44.484;11.314;2023-04-28T11:53:41;100533.63;;;23.76;45.12
60258;BME280;46115;44.484;11.314;2023-04-28T11:57:43;100518.06;;;23.70;43.87
60258;BME280;46115;44.484;11.314;2023-04-28T12:01:49;100528.53;;;23.55;44.20
60258;BME280;46115;44.484;11.314;2023-04-28T12:05:52;100525.94;;;23.45;44.31
60258;BME280;46115;44.484;11.314;2023-04-28T12:10:10;100517.94;;;23.18;47.65
60258;BME280;46115;44.484;11.314;2023-04-28T12:14:13;100517.88;;;23.27;47.26
60258;BME280;46115;44.484;11.314;2023-04-28T12:18:17;100484.34;;;23.30;47.44
60258;BME280;46115;44.484;11.314;2023-04-28T12:22:19;100514.50;;;23.51;47.59
60258;BME280;46115;44.484;11.314;2023-04-28T12:26:24;100509.63;;;23.29;47.54
60258;BME280;46115;44.484;11.314;2023-04-28T12:30:28;100495.59;;;23.61;46.53
60258;BME280;46115;44.484;11.314;2023-04-28T12:34:32;100491.50;;;23.39;48.31
60258;BME280;46115;44.484;11.314;2023-04-28T12:38:35;100506.78;;;22.50;49.02
60258;BME280;46115;44.484;11.314;2023-04-28T12:42:38;100480.41;;;21.89;50.36
60258;BME280;46115;44.484;11.314;2023-04-28T12:46:40;100473.69;;;21.65;50.98
60258;BME280;46115;44.484;11.314;2023-04-28T12:50:44;100469.81;;;22.42;49.36
60258;BME280;46115;44.484;11.314;2023-04-28T12:54:47;100453.84;;;22.58;49.48
60258;BME280;46115;44.484;11.314;2023-04-28T12:58:50;100448.66;;;22.92;48.54
60258;BME280;46115;44.484;11.314;2023-04-28T13:02:52;100449.16;;;22.78;49.06
60258;BME280;46115;44.484;11.314;2023-04-28T13:06:57;100439.63;;;22.84;49.04
60258;BME280;46115;44.484;11.314;2023-04-28T13:10:59;100432.50;;;23.18;47.96
60258;BME280;46115;44.484;11.314;2023-04-28T13:15:02;100394.19;;;22.53;47.34
60258;BME280;46115;44.484;11.314;2023-04-28T13:19:05;100414.47;;;23.19;47.22
60258;BME280;46115;44.484;11.314;2023-04-28T13:23:12;100434.03;;;22.32;47.90
60258;BME280;46115;44.484;11.314;2023-04-28T13:27:14;100408.19;;;22.39;48.51
60258;BME280;46115;44.484;11.314;2023-04-28T13:31:17;100416.44;;;22.73;47.25
60258;BME280;46115;44.484;11.314;2023-04-28T13:35:20;100406.81;;;22.70;47.94
60258;BME280;46115;44.484;11.314;2023-04-28T13:39:23;100417.06;;;23.02;47.77
60258;BME280;46115;44.484;11.314;2023-04-28T13:43:26;100403.13;;;22.71;48.27
60258;BME280;46115;44.484;11.314;2023-04-28T13:47:29;100376.47;;;22.51;50.17
60258;BME280;46115;44.484;11.314;2023-04-28T13:51:32;100379.31;;;23.02;47.62
60258;BME280;46115;44.484;11.314;2023-04-28T13:55:36;100351.44;;;22.05;49.40
60258;BME280;46115;44.484;11.314;2023-04-28T13:59:39;100330.06;;;22.92;48.26
60258;BME280;46115;44.484;11.314;2023-04-28T14:03:41;100354.50;;;22.55;48.87
60258;BME280;46115;44.484;11.314;2023-04-28T14:07:44;100356.78;;;22.50;48.76
60258;BME280;46115;44.484;11.314;2023-04-28T14:11:48;100349.88;;;22.30;49.76
60258;BME280;46115;44.484;11.314;2023-04-28T14:15:51;100325.19;;;22.78;47.98
60258;BME280;46115;44.484;11.314;2023-04-28T14:19:54;100342.84;;;22.90;47.89
60258;BME280;46115;44.484;11.314;2023-04-28T14:23:56;100345.63;;;22.63;48.14
60258;BME280;46115;44.484;11.314;2023-04-28T14:28:00;100357.13;;;23.09;47.51
60258;BME280;46115;44.484;11.314;2023-04-28T14:32:03;100356.84;;;22.94;47.29
60258;BME280;46115;44.484;11.314;2023-04-28T14:36:06;100364.53;;;22.53;48.44
60258;BME280;46115;44.484;11.314;2023-04-28T14:40:09;100352.41;;;23.11;47.69
60258;BME280;46115;44.484;11.314;2023-04-28T14:44:13;100340.91;;;23.26;47.59
60258;BME280;46115;44.484;11.314;2023-04-28T14:48:16;100341.75;;;22.83;48.54
60258;BME280;46115;44.484;11.314;2023-04-28T14:52:18;100332.66;;;22.84;47.53
60258;BME280;46115;44.484;11.314;2023-04-28T14:56:22;100334.91;;;22.71;48.22
60258;BME280;46115;44.484;11.314;2023-04-28T15:00:26;100321.53;;;23.05;47.80
60258;BME280;46115;44.484;11.314;2023-04-28T15:04:28;100332.97;;;22.99;47.82
60258;BME280;46115;44.484;11.314;2023-04-28T15:08:31;100337.75;;;22.87;47.82
60258;BME280;46115;44.484;11.314;2023-04-28T15:12:34;100327.50;;;23.17;47.12
60258;BME280;46115;44.484;11.314;2023-04-28T15:16:38;100333.06;;;22.18;49.30
60258;BME280;46115;44.484;11.314;2023-04-28T15:20:41;100323.91;;;22.11;50.40
60258;BME280;46115;44.484;11.314;2023-04-28T15:24:43;100307.94;;;22.27;49.26
60258;BME280;46115;44.484;11.314;2023-04-28T15:28:46;100297.50;;;21.97;50.35
60258;BME280;46115;44.484;11.314;2023-04-28T15:32:49;100286.06;;;21.40;51.82
60258;BME280;46115;44.484;11.314;2023-04-28T15:36:52;100276.28;;;21.94;50.38
60258;BME280;46115;44.484;11.314;2023-04-28T15:40:55;100269.00;;;22.04;50.45
60258;BME280;46115;44.484;11.314;2023-04-28T15:44:57;100245.69;;;21.95;50.19
60258;BME280;46115;44.484;11.314;2023-04-28T15:49:01;100250.84;;;21.88;51.42
60258;BME280;46115;44.484;11.314;2023-04-28T15:53:03;100260.47;;;22.08;51.30
60258;BME280;46115;44.484;11.314;2023-04-28T15:57:06;100266.69;;;22.09;51.31
60258;BME280;46115;44.484;11.314;2023-04-28T16:01:08;100271.16;;;21.73;52.92
60258;BME280;46115;44.484;11.314;2023-04-28T16:05:13;100269.91;;;22.13;51.37
60258;BME280;46115;44.484;11.314;2023-04-28T16:09:15;100279.38;;;22.17;51.62
60258;BME280;46115;44.484;11.314;2023-04-28T16:13:18;100288.00;;;21.57;55.40
60258;BME280;46115;44.484;11.314;2023-04-28T16:17:20;100267.34;;;21.75;55.70
60258;BME280;46115;44.484;11.314;2023-04-28T16:21:24;100266.91;;;21.25;58.08
60258;BME280;46115;44.484;11.314;2023-04-28T16:25:27;100258.09;;;21.78;56.99
60258;BME280;46115;44.484;11.314;2023-04-28T16:29:29;100258.28;;;21.94;56.59
60258;BME280;46115;44.484;11.314;2023-04-28T16:33:31;100255.66;;;21.67;56.86
60258;BME280;46115;44.484;11.314;2023-04-28T16:37:35;100257.94;;;21.62;56.85
60258;BME280;46115;44.484;11.314;2023-04-28T16:41:39;100261.88;;;21.67;56.70
60258;BME280;46115;44.484;11.314;2023-04-28T16:45:41;100254.50;;;21.69;57.17
60258;BME280;46115;44.484;11.314;2023-04-28T16:49:43;100262.25;;;21.72;56.96
60258;BME280;46115;44.484;11.314;2023-04-28T16:53:47;100268.25;;;21.39;58.60
60258;BME280;46115;44.484;11.314;2023-04-28T16:57:49;100270.09;;;21.66;58.05
60258;BME280;46115;44.484;11.314;2023-04-28T17:01:53;100271.47;;;21.05;60.35
60258;BME280;46115;44.484;11.314;2023-04-28T17:05:55;100264.09;;;21.17;59.64
60258;BME280;46115;44.484;11.314;2023-04-28T17:10:00;100251.06;;;21.12;59.16
60258;BME280;46115;44.484;11.314;2023-04-28T17:14:03;100254.41;;;21.34;59.87
60258;BME280;46115;44.484;11.314;2023-04-28T17:18:06;100254.47;;;21.14;61.00
60258;BME280;46115;44.484;11.314;2023-04-28T17:22:09;100250.63;;;20.90;62.32
60258;BME280;46115;44.484;11.314;2023-04-28T17:26:12;100240.66;;;20.63;63.26
60258;BME280;46115;44.484;11.314;2023-04-28T17:30:16;100238.09;;;20.61;63.30
60258;BME280;46115;44.484;11.314;2023-04-28T17:34:18;100252.59;;;20.88;62.41
60258;BME280;46115;44.484;11.314;2023-04-28T17:38:21;100240.97;;;20.21;64.94
60258;BME280;46115;44.484;11.314;2023-04-28T17:42:27;100249.13;;;20.29;65.14
60258;BME280;46115;44.484;11.314;2023-04-28T17:46:30;100244.75;;;20.28;65.65
60258;BME280;46115;44.484;11.314;2023-04-28T17:50:33;100246.47;;;19.90;67.26
60258;BME280;46115;44.484;11.314;2023-04-28T17:54:35;100254.34;;;20.11;66.58
60258;BME280;46115;44.484;11.314;2023-04-28T17:58:40;100247.03;;;19.94;67.34
60258;BME280;46115;44.484;11.314;2023-04-28T18:02:42;100255.88;;;19.56;68.17
60258;BME280;46115;44.484;11.314;2023-04-28T18:06:44;100252.25;;;19.86;66.97
60258;BME280;46115;44.484;11.314;2023-04-28T18:10:47;100252.69;;;19.81;65.86
60258;BME280;46115;44.484;11.314;2023-04-28T18:14:51;100254.25;;;19.44;66.67
60258;BME280;46115;44.484;11.314;2023-04-28T18:18:54;100242.22;;;19.28;67.22
60258;BME280;46115;44.484;11.314;2023-04-28T18:22:56;100249.06;;;19.12;67.52
60258;BME280;46115;44.484;11.314;2023-04-28T18:26:59;100254.78;;;19.38;66.80
60258;BME280;46115;44.484;11.314;2023-04-28T18:31:04;100256.91;;;19.04;68.25
60258;BME280;46115;44.484;11.314;2023-04-28T18:35:06;100249.38;;;19.18;67.54
60258;BME280;46115;44.484;11.314;2023-04-28T18:39:09;100205.38;;;18.81;67.53
60258;BME280;46115;44.484;11.314;2023-04-28T18:43:12;100253.63;;;18.69;68.32
60258;BME280;46115;44.484;11.314;2023-04-28T18:47:16;100242.66;;;18.52;68.61
60258;BME280;46115;44.484;11.314;2023-04-28T18:51:18;100252.31;;;18.43;69.35
60258;BME280;46115;44.484;11.314;2023-04-28T18:55:21;100251.72;;;18.19;69.89
60258;BME280;46115;44.484;11.314;2023-04-28T22:06:08;100248.66;;;17.37;59.11
60258;BME280;46115;44.484;11.314;2023-04-28T22:10:11;100243.31;;;17.37;59.29
60258;BME280;46115;44.484;11.314;2023-04-28T22:14:13;100239.03;;;17.45;59.41
60258;BME280;46115;44.484;11.314;2023-04-28T22:18:15;100228.81;;;17.51;59.53
60258;BME280;46115;44.484;11.314;2023-04-28T22:22:19;100231.16;;;17.44;59.91
60258;BME280;46115;44.484;11.314;2023-04-28T22:26:22;100233.81;;;17.33;60.02
60258;BME280;46115;44.484;11.314;2023-04-28T22:30:25;100234.56;;;17.35;59.83
60258;BME280;46115;44.484;11.314;2023-04-28T22:34:28;100240.78;;;17.35;60.17
60258;BME280;46115;44.484;11.314;2023-04-28T22:38:32;100252.19;;;17.37;60.24
60258;BME280;46115;44.484;11.314;2023-04-28T22:42:34;100250.81;;;17.32;60.78
60258;BME280;46115;44.484;11.314;2023-04-28T22:46:37;100251.56;;;17.34;60.65
60258;BME280;46115;44.484;11.314;2023-04-28T22:50:40;100258.00;;;17.42;60.86
60258;BME280;46115;44.484;11.314;2023-04-28T22:54:43;100251.81;;;17.42;60.82
60258;BME280;46115;44.484;11.314;2023-04-28T22:58:46;100256.91;;;17.34;60.93
60258;BME280;46115;44.484;11.314;2023-04-28T23:02:48;100252.53;;;17.33;61.35
60258;BME280;46115;44.484;11.314;2023-04-28T23:06:50;100247.69;;;17.38;60.88
60258;BME280;46115;44.484;11.314;2023-04-28T23:10:55;100249.03;;;17.21;61.83
60258;BME280;46115;44.484;11.314;2023-04-28T23:14:57;100253.38;;;17.33;61.36
60258;BME280;46115;44.484;11.314;2023-04-28T23:18:59;100253.03;;;17.27;61.39
60258;BME280;46115;44.484;11.314;2023-04-28T23:23:02;100250.72;;;17.44;61.08
60258;BME280;46115;44.484;11.314;2023-04-28T23:27:06;100254.47;;;17.31;61.41
60258;BME280;46115;44.484;11.314;2023-04-28T23:31:09;100244.41;;;17.23;61.94
60258;BME280;46115;44.484;11.314;2023-04-28T23:35:12;100256.28;;;17.30;61.58
60258;BME280;46115;44.484;11.314;2023-04-28T23:39:15;100249.75;;;17.23;61.96
60258;BME280;46115;44.484;11.314;2023-04-28T23:43:19;100248.16;;;17.32;62.18
60258;BME280;46115;44.484;11.314;2023-04-28T23:47:21;100241.84;;;17.33;62.40
60258;BME280;46115;44.484;11.314;2023-04-28T23:51:24;100231.78;;;17.25;62.73
60258;BME280;46115;44.484;11.314;2023-04-28T23:55:26;100226.78;;;17.32;62.29
60258;BME280;46115;44.484;11.314;2023-04-28T23:59:30;100227.28;;;17.37;62.35
